Pineville, New York
Current Conditions -  °F | °C
As of 6:15 AM on Thursday 23 Oct 2014 (Local Time) from KMSV Reporting Station
Overcast Overcast  
Wind Chill:   Ceiling: 1800
Heat Index:   Visibility: 10mi
Dew Point:   Wind: 12mph
Humidity: 93%   Direction: 340°NNW
Pressure: 29.8"   Gusts: NA
Location:  42.1536°N, 75.1637°W
Report Text: KMSV 231015Z AUTO 34010KT 10SM BKN018 BKN025 OVC060 08/07 A2980 RMK AO1
Loading
Personal Weather Stations






























Interactive Weather Map
Tropical Storm Tracking
New forecast layout! Learn more

10-Day Weather Forecast

Advertisements
Track Severe Weather on mobile